createdAt,value
2023-03-10T00:00:00.515Z,65
2023-03-10T00:15:00.553Z,66
2023-03-10T00:30:00.447Z,67
2023-03-10T00:45:00.453Z,67
2023-03-10T01:00:00.491Z,67
2023-03-10T01:15:00.527Z,66
2023-03-10T01:30:00.465Z,66
2023-03-10T01:45:00.449Z,67
2023-03-10T02:00:00.475Z,67
2023-03-10T02:15:00.562Z,67
2023-03-10T02:30:00.514Z,68
2023-03-10T02:45:00.457Z,68
2023-03-10T03:00:00.454Z,68
2023-03-10T03:15:00.542Z,68
2023-03-10T03:30:00.457Z,69
2023-03-10T03:45:00.435Z,69
2023-03-10T04:00:00.477Z,69
2023-03-10T04:15:00.482Z,70
2023-03-10T04:30:00.455Z,71
2023-03-10T04:45:00.424Z,71
2023-03-10T05:00:03.525Z,71
2023-03-10T05:15:00.480Z,71
2023-03-10T05:30:00.496Z,72
2023-03-10T05:45:00.440Z,73
2023-03-10T06:00:00.425Z,72
2023-03-10T06:15:00.481Z,72
2023-03-10T06:30:00.490Z,73
2023-03-10T06:45:00.466Z,74
2023-03-10T07:00:00.525Z,74
2023-03-10T07:15:00.548Z,74
2023-03-10T07:30:00.666Z,73
2023-03-10T07:45:00.696Z,73
2023-03-10T08:00:00.712Z,74
2023-03-10T08:15:00.767Z,73
2023-03-10T08:30:00.665Z,72
2023-03-10T08:45:00.643Z,71
2023-03-10T09:00:00.722Z,69
2023-03-10T09:15:00.662Z,67
2023-03-10T09:30:01.909Z,65
2023-03-10T09:45:00.673Z,64
2023-03-10T10:00:00.796Z,62
2023-03-10T10:15:00.635Z,62
2023-03-10T10:30:00.659Z,61
2023-03-10T10:45:00.737Z,60
2023-03-10T11:00:00.649Z,57
2023-03-10T11:15:00.668Z,56
2023-03-10T11:30:00.673Z,54
2023-03-10T11:45:00.702Z,54
2023-03-10T12:00:00.728Z,51
2023-03-10T12:15:00.673Z,51
2023-03-10T12:30:00.631Z,51
2023-03-10T12:45:00.638Z,50
2023-03-10T13:00:00.796Z,50
2023-03-10T13:15:00.675Z,50
2023-03-10T13:30:00.627Z,50
2023-03-10T13:45:00.653Z,50
2023-03-10T14:00:00.772Z,49
2023-03-10T14:15:00.641Z,49
2023-03-10T14:30:00.686Z,49
2023-03-10T14:45:00.698Z,49
2023-03-10T15:00:00.755Z,50
2023-03-10T15:15:00.644Z,53
2023-03-10T15:30:00.675Z,57
2023-03-10T15:45:00.658Z,59
2023-03-10T16:00:10.556Z,62
2023-03-10T16:15:00.675Z,64
2023-03-10T16:30:00.985Z,66
2023-03-10T16:45:00.672Z,67
2023-03-10T17:00:00.700Z,69
2023-03-10T17:15:00.656Z,69
2023-03-10T17:30:00.876Z,70
2023-03-10T17:45:00.777Z,69
2023-03-10T18:00:00.730Z,70
2023-03-10T18:15:00.664Z,71
2023-03-10T18:30:00.662Z,70
2023-03-10T18:45:00.642Z,71
2023-03-10T19:00:01.356Z,73
2023-03-10T19:15:00.661Z,73
2023-03-10T19:30:00.692Z,74
2023-03-10T19:45:00.666Z,77
2023-03-10T20:00:01.147Z,77
2023-03-10T20:15:00.635Z,77
2023-03-10T20:30:00.647Z,77
2023-03-10T20:45:00.719Z,77
2023-03-10T21:00:00.762Z,77
2023-03-10T21:15:00.651Z,77
2023-03-10T21:30:00.719Z,77
2023-03-10T21:45:00.693Z,77
2023-03-10T22:00:00.756Z,77
2023-03-10T22:15:00.727Z,77
2023-03-10T22:30:00.642Z,77
2023-03-10T22:45:00.814Z,78
2023-03-10T23:00:00.701Z,79
2023-03-10T23:15:03.625Z,79
2023-03-10T23:30:00.656Z,79
2023-03-10T23:45:00.642Z,78
